createdAt,value
2019-04-27T00:00:55.277Z,92.07
2019-04-27T00:03:36.497Z,91.19
2019-04-27T00:06:08.800Z,91.55
2019-04-27T00:08:43.101Z,91.88
2019-04-27T00:11:23.002Z,91.38
2019-04-27T00:13:53.544Z,92.24
2019-04-27T00:16:46.860Z,92.01
2019-04-27T00:19:31.669Z,92.46
2019-04-27T00:22:15.691Z,93.04
2019-04-27T00:24:45.094Z,92.97
2019-04-27T00:27:14.430Z,94.01
2019-04-27T00:29:43.751Z,94.04
2019-04-27T00:32:13.274Z,93.40
2019-04-27T00:34:43.173Z,92.82
2019-04-27T00:37:34.391Z,92.20
2019-04-27T00:40:10.867Z,91.98
2019-04-27T00:42:40.392Z,92.13
2019-04-27T00:45:09.820Z,92.88
2019-04-27T00:47:39.138Z,93.25
2019-04-27T00:50:09.191Z,93.64
2019-04-27T00:52:38.551Z,94.06
2019-04-27T00:55:07.977Z,94.73
2019-04-27T00:58:01.913Z,94.75
2019-04-27T01:00:48.674Z,94.83
2019-04-27T01:03:24.234Z,94.78
2019-04-27T01:05:53.551Z,94.83
2019-04-27T01:08:23.028Z,95.20
2019-04-27T01:10:53.750Z,95.33
2019-04-27T01:13:23.257Z,95.20
2019-04-27T01:15:54.146Z,95.07
2019-04-27T01:18:23.563Z,95.10
2019-04-27T01:20:52.828Z,95.26
2019-04-27T01:23:22.091Z,95.34
2019-04-27T01:26:09.765Z,95.46
2019-04-27T01:28:50.231Z,95.49
2019-04-27T01:31:20.013Z,95.68
2019-04-27T01:33:49.292Z,95.95
2019-04-27T01:36:19.082Z,95.93
2019-04-27T01:38:49.669Z,95.84
2019-04-27T01:41:19.313Z,95.07
2019-04-27T01:43:49.136Z,94.58
2019-04-27T01:46:19.583Z,94.79
2019-04-27T01:48:49.133Z,95.44
2019-04-27T01:51:20.743Z,94.97
2019-04-27T01:53:49.526Z,94.83
2019-04-27T01:56:19.546Z,95.00
2019-04-27T01:58:49.418Z,94.98
2019-04-27T02:01:29.409Z,95.10
2019-04-27T02:04:20.747Z,95.30
2019-04-27T02:06:51.620Z,95.18
2019-04-27T02:09:21.821Z,95.32
2019-04-27T02:11:51.234Z,94.76
2019-04-27T02:14:20.536Z,95.19
2019-04-27T02:16:49.888Z,95.83
2019-04-27T02:19:19.492Z,95.89
2019-04-27T02:21:51.156Z,95.89
2019-04-27T02:24:19.940Z,96.10
2019-04-27T02:26:49.777Z,96.16
2019-04-27T02:29:34.517Z,96.48
2019-04-27T02:32:22.837Z,96.62
2019-04-27T02:34:55.722Z,96.57
2019-04-27T02:37:25.076Z,96.53
2019-04-27T02:39:54.350Z,96.76
2019-04-27T02:42:25.425Z,96.83
2019-04-27T02:44:55.050Z,96.81
2019-04-27T02:47:24.307Z,96.83
2019-04-27T02:49:53.618Z,96.87
2019-04-27T02:52:34.863Z,97.04
2019-04-27T02:55:04.891Z,97.38
2019-04-27T02:57:34.212Z,97.39
2019-04-27T03:00:04.181Z,97.06
2019-04-27T03:02:43.749Z,97.19
2019-04-27T03:05:20.924Z,97.30
2019-04-27T03:07:50.527Z,97.36
2019-04-27T03:10:20.054Z,97.34
2019-04-27T03:12:54.863Z,97.30
2019-04-27T03:15:35.755Z,97.30
2019-04-27T03:18:22.618Z,97.26
2019-04-27T03:20:55.118Z,97.30
2019-04-27T03:23:24.804Z,97.30
2019-04-27T03:26:14.589Z,97.27
2019-04-27T03:28:43.868Z,97.32
2019-04-27T03:31:14.197Z,97.36
2019-04-27T03:33:44.036Z,97.38
2019-04-27T03:36:13.504Z,97.49
2019-04-27T03:38:43.023Z,97.61
2019-04-27T03:41:12.379Z,97.64
2019-04-27T03:43:41.975Z,97.63
2019-04-27T03:46:11.375Z,97.71
2019-04-27T03:48:41.007Z,97.93
2019-04-27T03:51:19.703Z,98.00
2019-04-27T03:54:06.045Z,98.04
2019-04-27T03:56:42.049Z,97.99
2019-04-27T03:59:32.592Z,97.97
2019-04-27T04:02:02.419Z,98.02
2019-04-27T04:04:32.774Z,98.11
2019-04-27T04:07:15.608Z,98.21
2019-04-27T04:09:45.168Z,98.23
2019-04-27T04:12:21.336Z,97.78
2019-04-27T04:14:50.669Z,97.82
2019-04-27T04:17:21.388Z,97.78
2019-04-27T04:19:57.464Z,97.71
2019-04-27T04:22:21.664Z,97.70
2019-04-27T04:24:51.006Z,97.65
2019-04-27T04:27:20.495Z,97.58
2019-04-27T04:29:49.750Z,97.31
2019-04-27T04:32:19.406Z,97.29
2019-04-27T04:34:50.290Z,97.26
2019-04-27T04:37:19.751Z,96.95
2019-04-27T04:39:53.032Z,96.71
2019-04-27T04:42:35.855Z,96.49
2019-04-27T04:45:30.406Z,96.45
2019-04-27T04:48:02.339Z,96.44
2019-04-27T04:50:31.633Z,96.48
2019-04-27T04:53:01.217Z,96.51
2019-04-27T04:55:30.841Z,96.56
2019-04-27T04:58:00.206Z,96.63
2019-04-27T05:00:29.899Z,96.39
2019-04-27T05:02:59.661Z,96.26
2019-04-27T05:05:29.405Z,96.31
2019-04-27T05:08:00.620Z,96.28
2019-04-27T05:10:31.250Z,96.19
2019-04-27T05:13:00.722Z,96.12
2019-04-27T05:15:30.095Z,95.38
2019-04-27T05:17:59.387Z,95.11
2019-04-27T05:20:48.663Z,94.80
2019-04-27T05:23:18.675Z,94.32
2019-04-27T05:25:49.247Z,93.23
2019-04-27T05:28:18.935Z,92.23
2019-04-27T05:30:48.929Z,88.81
2019-04-27T05:33:18.822Z,86.53
2019-04-27T05:35:49.138Z,84.89
2019-04-27T05:38:19.306Z,83.22
2019-04-27T05:40:49.932Z,82.25
2019-04-27T05:43:21.506Z,82.59
2019-04-27T05:46:40.753Z,82.71
2019-04-27T05:49:15.518Z,82.47
2019-04-27T05:51:47.871Z,82.75
2019-04-27T05:54:15.949Z,83.85
2019-04-27T05:56:45.234Z,83.76
2019-04-27T05:59:14.987Z,84.78
2019-04-27T06:01:44.335Z,84.45
2019-04-27T06:04:13.632Z,85.63
2019-04-27T06:06:43.056Z,86.01
2019-04-27T06:09:12.348Z,86.76
2019-04-27T06:11:41.649Z,87.07
2019-04-27T06:14:10.996Z,87.13
2019-04-27T06:16:40.345Z,87.16
2019-04-27T06:19:09.792Z,88.21
2019-04-27T06:21:40.101Z,88.85
2019-04-27T06:24:09.533Z,89.63
2019-04-27T06:26:39.925Z,89.88
2019-04-27T06:29:09.652Z,89.44
2019-04-27T06:31:39.695Z,89.57
2019-04-27T06:34:09.791Z,89.73
2019-04-27T06:36:39.223Z,89.68
2019-04-27T06:39:09.917Z,89.54
2019-04-27T06:41:39.933Z,90.01
2019-04-27T06:44:11.359Z,90.88
2019-04-27T06:46:40.723Z,89.21
2019-04-27T06:49:11.116Z,89.32
2019-04-27T06:51:40.621Z,89.80
2019-04-27T06:54:09.915Z,90.32
2019-04-27T06:56:39.258Z,90.80
2019-04-27T06:59:08.887Z,90.48
2019-04-27T07:01:38.994Z,90.52
2019-04-27T07:04:10.730Z,88.73
2019-04-27T07:06:52.799Z,88.91
2019-04-27T07:09:10.772Z,87.14
2019-04-27T07:11:40.218Z,88.52
2019-04-27T07:14:11.645Z,88.92
2019-04-27T07:16:40.808Z,89.48
2019-04-27T07:19:10.083Z,88.71
2019-04-27T07:21:40.110Z,89.23
2019-04-27T07:24:09.531Z,89.29
2019-04-27T07:26:39.231Z,88.85
2019-04-27T07:29:09.589Z,89.12
2019-04-27T07:31:40.027Z,88.43
2019-04-27T07:34:09.607Z,86.99
2019-04-27T07:36:39.253Z,87.99
2019-04-27T07:39:11.493Z,88.28
2019-04-27T07:41:40.402Z,86.28
2019-04-27T07:44:24.538Z,82.58
2019-04-27T07:47:15.598Z,79.61
2019-04-27T07:49:45.082Z,72.93
2019-04-27T07:52:14.358Z,69.52
2019-04-27T07:54:43.653Z,67.53
2019-04-27T07:57:13.042Z,66.28
2019-04-27T07:59:42.380Z,72.71
2019-04-27T08:02:11.710Z,69.87
2019-04-27T08:04:41.262Z,74.94
2019-04-27T08:07:10.573Z,73.14
2019-04-27T08:09:39.909Z,71.51
2019-04-27T08:12:10.865Z,69.66
2019-04-27T08:14:40.551Z,69.42
2019-04-27T08:17:09.887Z,70.75
2019-04-27T08:19:39.569Z,70.03
2019-04-27T08:22:09.591Z,63.38
2019-04-27T08:24:39.569Z,63.38
2019-04-27T08:27:29.578Z,59.21
2019-04-27T08:30:09.592Z,57.63
2019-04-27T08:32:41.697Z,55.71
2019-04-27T08:35:11.238Z,54.78
2019-04-27T08:37:40.578Z,60.11
2019-04-27T08:40:10.332Z,62.27
2019-04-27T08:42:39.633Z,65.78
2019-04-27T08:45:10.245Z,66.97
2019-04-27T08:47:41.728Z,70.04
2019-04-27T08:50:11.008Z,71.80
2019-04-27T08:52:41.947Z,73.80
2019-04-27T08:55:11.475Z,74.05
2019-04-27T08:57:40.786Z,74.72
2019-04-27T09:00:10.510Z,77.00
2019-04-27T09:02:46.776Z,77.04
2019-04-27T09:05:10.947Z,76.60
2019-04-27T09:07:45.845Z,77.88
2019-04-27T09:10:21.717Z,76.03
2019-04-27T09:13:13.060Z,76.72
2019-04-27T09:15:49.496Z,76.83
2019-04-27T09:18:21.320Z,75.75
2019-04-27T09:20:53.455Z,74.59
2019-04-27T09:23:22.800Z,76.12
2019-04-27T09:25:52.155Z,74.12
2019-04-27T09:28:21.927Z,75.58
2019-04-27T09:30:51.276Z,75.58
2019-04-27T09:33:22.276Z,74.96
2019-04-27T09:35:52.912Z,74.40
2019-04-27T09:38:22.273Z,73.24
2019-04-27T09:40:51.534Z,71.57
2019-04-27T09:43:20.844Z,70.90
2019-04-27T10:49:13.298Z,79.42
2019-04-27T10:51:42.603Z,79.59
2019-04-27T10:54:11.874Z,79.67
2019-04-27T10:56:41.180Z,81.04
2019-04-27T10:59:10.485Z,81.54
2019-04-27T11:01:39.820Z,83.64
2019-04-27T11:04:28.285Z,84.94
2019-04-27T11:07:03.531Z,85.27
2019-04-27T11:09:32.901Z,85.28
2019-04-27T11:12:02.172Z,83.67
2019-04-27T11:14:31.504Z,83.74
2019-04-27T11:17:00.862Z,84.07
2019-04-27T11:19:30.225Z,85.77
2019-04-27T11:21:59.521Z,86.30
2019-04-27T11:24:28.888Z,86.37
2019-04-27T11:26:58.257Z,84.97
2019-04-27T11:29:27.783Z,83.19
2019-04-27T11:31:57.341Z,83.25
2019-04-27T11:34:45.905Z,83.44
2019-04-27T11:37:17.103Z,83.52
2019-04-27T11:39:46.385Z,81.97
2019-04-27T11:42:15.749Z,82.82
2019-04-27T11:44:45.110Z,84.02
2019-04-27T11:47:16.093Z,82.61
2019-04-27T11:49:45.788Z,80.48
2019-04-27T11:52:15.764Z,79.14
2019-04-27T11:54:45.788Z,80.68
2019-04-27T11:57:15.065Z,80.95
2019-04-27T11:59:44.340Z,79.75
2019-04-27T12:02:13.605Z,78.02
2019-04-27T12:04:42.845Z,79.63
2019-04-27T12:07:12.174Z,78.31
2019-04-27T12:09:41.535Z,79.22
2019-04-27T12:12:18.133Z,77.28
2019-04-27T12:14:42.096Z,78.60
2019-04-27T12:17:11.478Z,75.87
2019-04-27T12:19:40.777Z,77.39
2019-04-27T12:22:10.057Z,76.53
2019-04-27T12:24:39.317Z,76.68
2019-04-27T12:27:30.399Z,75.83
2019-04-27T12:30:21.431Z,74.71
2019-04-27T12:32:50.825Z,74.10
2019-04-27T12:35:20.151Z,74.28
2019-04-27T12:37:49.477Z,74.79
2019-04-27T12:40:18.808Z,73.98
2019-04-27T12:42:48.110Z,72.82
2019-04-27T12:45:18.348Z,74.63
2019-04-27T12:47:47.651Z,74.96
2019-04-27T12:50:17.457Z,73.63
2019-04-27T12:52:48.824Z,73.82
2019-04-27T12:55:36.472Z,74.37
2019-04-27T12:58:27.587Z,73.06
2019-04-27T13:00:57.605Z,71.84
2019-04-27T13:03:26.877Z,73.13
2019-04-27T13:05:56.167Z,72.83
2019-04-27T13:08:26.109Z,73.33
2019-04-27T13:10:57.300Z,73.14
2019-04-27T13:13:26.765Z,72.99
2019-04-27T13:15:56.467Z,72.43
2019-04-27T13:18:25.985Z,70.62
2019-04-27T13:20:55.286Z,71.47
2019-04-27T13:23:24.636Z,70.44
2019-04-27T13:25:53.969Z,73.43
2019-04-27T13:28:23.268Z,75.27
2019-04-27T13:30:52.576Z,76.39
2019-04-27T13:33:21.850Z,77.22
2019-04-27T13:35:51.130Z,77.31
2019-04-27T13:38:20.425Z,78.13
2019-04-27T13:41:08.528Z,79.20
2019-04-27T13:43:38.785Z,78.45
2019-04-27T13:46:36.444Z,80.73
2019-04-27T13:49:39.662Z,79.95
2019-04-27T13:52:17.691Z,81.86
2019-04-27T13:54:46.971Z,83.35
2019-04-27T13:57:18.342Z,83.29
2019-04-27T13:59:47.294Z,82.30
2019-04-27T14:02:16.696Z,83.69
2019-04-27T14:04:46.006Z,83.64
2019-04-27T14:07:15.349Z,83.45
2019-04-27T14:09:44.694Z,81.83
2019-04-27T14:12:21.313Z,83.69
2019-04-27T14:14:50.871Z,83.21
2019-04-27T14:17:20.172Z,83.73
2019-04-27T14:19:49.403Z,84.12
2019-04-27T14:22:18.742Z,83.83
2019-04-27T14:24:48.753Z,82.37
2019-04-27T14:27:19.343Z,83.32
2019-04-27T14:29:49.018Z,84.13
2019-04-27T14:32:18.890Z,83.29
2019-04-27T14:34:50.272Z,83.98
2019-04-27T14:37:19.356Z,82.80
2019-04-27T14:39:48.888Z,81.08
2019-04-27T14:42:19.157Z,82.45
2019-04-27T14:44:49.070Z,83.07
2019-04-27T14:47:18.870Z,82.19
2019-04-27T14:49:49.061Z,82.13
2019-04-27T14:52:18.853Z,82.59
2019-04-27T14:54:50.669Z,82.34
2019-04-27T14:57:20.392Z,83.42
2019-04-27T14:59:50.383Z,82.84
2019-04-27T15:02:19.652Z,82.66
2019-04-27T15:04:48.937Z,81.77
2019-04-27T15:07:18.214Z,82.04
2019-04-27T15:09:49.538Z,82.40
2019-04-27T15:12:18.607Z,83.40
2019-04-27T15:14:48.077Z,83.91
2019-04-27T15:17:22.085Z,84.15
2019-04-27T15:19:54.199Z,84.78
2019-04-27T15:22:27.838Z,84.06
2019-04-27T15:25:09.356Z,82.54
2019-04-27T15:27:42.394Z,84.76
2019-04-27T15:30:17.771Z,85.03
2019-04-27T15:33:04.883Z,84.21
2019-04-27T15:35:44.012Z,83.37
2019-04-27T15:38:16.219Z,81.83
2019-04-27T15:41:16.509Z,82.23
2019-04-27T15:43:48.543Z,82.00
2019-04-27T15:46:18.422Z,82.75
2019-04-27T15:48:48.722Z,82.65
2019-04-27T15:51:20.967Z,82.02
2019-04-27T15:53:50.916Z,82.33
2019-04-27T15:56:21.686Z,82.61
2019-04-27T15:58:51.189Z,83.62
2019-04-27T16:01:20.441Z,84.00
2019-04-27T16:03:52.107Z,83.73
2019-04-27T16:06:20.828Z,84.30
2019-04-27T16:08:50.270Z,84.55
2019-04-27T16:11:19.945Z,84.87
2019-04-27T16:13:49.317Z,83.97
2019-04-27T16:16:19.119Z,82.95
2019-04-27T16:18:49.107Z,83.53
2019-04-27T16:21:19.992Z,83.60
2019-04-27T16:23:49.514Z,83.89
2019-04-27T16:26:18.866Z,83.15
2019-04-27T16:28:53.015Z,82.36
2019-04-27T16:31:20.453Z,83.47
2019-04-27T16:33:49.995Z,83.90
2019-04-27T16:36:20.902Z,85.41
2019-04-27T16:38:58.044Z,84.54
2019-04-27T16:41:28.151Z,85.10
2019-04-27T16:43:58.142Z,85.33
2019-04-27T16:46:28.508Z,85.63
2019-04-27T16:48:59.488Z,84.71
2019-04-27T16:51:33.331Z,83.98
2019-04-27T16:54:00.428Z,83.36
2019-04-27T16:56:29.679Z,81.93
2019-04-27T16:59:10.030Z,81.58
2019-04-27T17:01:30.802Z,81.50
2019-04-27T17:04:00.330Z,83.17
2019-04-27T17:06:30.004Z,84.14
2019-04-27T17:09:05.425Z,84.68
2019-04-27T17:11:30.435Z,85.38
2019-04-27T17:14:15.427Z,86.77
2019-04-27T17:16:58.141Z,85.91
2019-04-27T17:19:35.843Z,85.45
2019-04-27T17:22:05.037Z,86.45
2019-04-27T17:24:41.971Z,85.24
2019-04-27T17:27:11.101Z,87.75
2019-04-27T17:29:41.939Z,86.58
2019-04-27T17:32:33.689Z,86.26
2019-04-27T17:35:04.906Z,86.67
2019-04-27T17:37:33.918Z,86.20
2019-04-27T17:40:03.412Z,85.76
2019-04-27T17:42:32.708Z,86.16
2019-04-27T17:45:01.950Z,86.05
2019-04-27T17:47:31.279Z,86.33
2019-04-27T17:50:00.527Z,85.72
2019-04-27T17:52:29.823Z,86.13
2019-04-27T17:55:00.623Z,85.71
2019-04-27T17:57:30.468Z,86.13
2019-04-27T18:00:03.121Z,85.50
2019-04-27T18:02:33.715Z,86.20
2019-04-27T18:05:01.914Z,86.63
2019-04-27T18:07:34.979Z,86.53
2019-04-27T18:10:02.199Z,86.69
2019-04-27T18:12:31.430Z,87.03
2019-04-27T18:15:00.693Z,86.15
2019-04-27T18:17:31.439Z,86.74
2019-04-27T18:20:02.612Z,86.08
2019-04-27T18:22:36.519Z,87.31
2019-04-27T18:25:09.732Z,86.82
2019-04-27T18:28:14.802Z,87.65
2019-04-27T18:31:05.060Z,88.52
2019-04-27T18:33:37.155Z,88.02
2019-04-27T18:36:11.720Z,88.09
2019-04-27T18:38:37.399Z,88.38
2019-04-27T18:41:11.510Z,87.70
2019-04-27T18:43:40.610Z,88.53
2019-04-27T18:46:09.515Z,87.60
2019-04-27T18:48:58.458Z,88.23
2019-04-27T18:51:40.057Z,88.32
2019-04-27T18:54:09.490Z,88.62
2019-04-27T18:56:41.563Z,89.60
2019-04-27T18:59:09.978Z,89.60
2019-04-27T19:01:39.252Z,90.41
2019-04-27T19:04:08.795Z,90.72
2019-04-27T19:06:39.141Z,90.43
2019-04-27T19:09:08.798Z,89.46
2019-04-27T19:11:38.460Z,89.47
2019-04-27T19:14:08.313Z,89.17
2019-04-27T19:16:38.331Z,88.95
2019-04-27T19:19:08.724Z,88.27
2019-04-27T19:21:39.272Z,88.83
2019-04-27T19:24:09.034Z,89.02
2019-04-27T19:27:15.291Z,90.01
2019-04-27T19:29:39.639Z,89.94
2019-04-27T19:32:09.037Z,89.74
2019-04-27T19:34:38.853Z,89.35
2019-04-27T19:37:08.361Z,90.06
2019-04-27T19:39:39.350Z,89.90
2019-04-27T19:42:08.668Z,90.11
2019-04-27T19:44:38.919Z,89.61
2019-04-27T19:47:10.300Z,89.05
2019-04-27T19:49:39.419Z,88.44
2019-04-27T19:52:08.865Z,88.67
2019-04-27T19:54:39.785Z,87.97
2019-04-27T19:57:09.423Z,88.18
2019-04-27T19:59:58.986Z,88.84
2019-04-27T20:02:28.845Z,88.66
2019-04-27T20:05:04.237Z,88.52
2019-04-27T20:07:33.485Z,88.83
2019-04-27T20:10:03.717Z,88.93
2019-04-27T20:12:33.008Z,89.08
2019-04-27T20:15:02.509Z,88.69
2019-04-27T20:17:32.594Z,88.16
2019-04-27T20:20:02.353Z,88.75
2019-04-27T20:22:31.761Z,88.22
2019-04-27T20:25:02.010Z,87.87
2019-04-27T20:27:45.306Z,88.25
2019-04-27T20:30:03.131Z,87.70
2019-04-27T20:32:32.599Z,89.08
2019-04-27T20:35:01.900Z,88.78
2019-04-27T20:37:31.438Z,88.37
2019-04-27T20:40:01.641Z,88.50
2019-04-27T20:42:31.550Z,88.98
2019-04-27T20:45:01.918Z,89.77
2019-04-27T20:47:31.652Z,90.28
2019-04-27T20:50:01.034Z,90.12
2019-04-27T20:53:01.109Z,89.86
2019-04-27T20:55:32.221Z,90.56
2019-04-27T20:58:02.851Z,90.33
2019-04-27T21:00:32.253Z,90.20
2019-04-27T21:03:14.512Z,89.64
2019-04-27T21:06:01.279Z,88.91
2019-04-27T21:08:32.217Z,88.53
2019-04-27T21:11:01.658Z,88.24
2019-04-27T21:13:30.893Z,88.16
2019-04-27T21:16:02.148Z,88.76
2019-04-27T21:18:31.810Z,88.17
2019-04-27T21:21:01.388Z,87.85
2019-04-27T21:23:31.226Z,87.76
2019-04-27T21:26:02.089Z,87.67
2019-04-27T21:28:32.030Z,86.38
2019-04-27T21:31:01.353Z,86.52
2019-04-27T21:33:31.828Z,86.03
2019-04-27T21:36:01.446Z,85.69
2019-04-27T21:38:30.766Z,84.87
2019-04-27T21:41:00.037Z,84.96
2019-04-27T21:43:29.340Z,85.16
2019-04-27T21:45:58.628Z,85.37
2019-04-27T21:48:27.894Z,84.89
2019-04-27T21:50:57.234Z,85.15
2019-04-27T21:53:41.211Z,86.54
2019-04-27T21:56:11.380Z,85.95
2019-04-27T21:58:42.028Z,86.49
2019-04-27T22:01:24.118Z,85.93
2019-04-27T22:03:53.388Z,85.88
2019-04-27T22:06:22.644Z,85.40
2019-04-27T22:08:51.991Z,86.72
2019-04-27T22:11:21.865Z,87.71
2019-04-27T22:13:51.392Z,87.72
2019-04-27T22:16:21.396Z,88.08
2019-04-27T22:18:51.893Z,88.39
2019-04-27T22:21:21.762Z,88.44
2019-04-27T22:24:06.186Z,88.03
2019-04-27T22:26:35.439Z,87.49
2019-04-27T22:29:04.862Z,86.81
2019-04-27T22:31:34.382Z,86.72
2019-04-27T22:34:03.697Z,87.19
2019-04-27T22:36:32.965Z,86.48
2019-04-27T22:39:16.098Z,88.28
2019-04-27T22:41:55.002Z,87.79
2019-04-27T22:44:51.014Z,87.49
2019-04-27T22:47:21.574Z,86.97
2019-04-27T22:49:50.863Z,87.04
2019-04-27T22:52:21.846Z,87.07
2019-04-27T22:54:51.444Z,87.22
2019-04-27T22:57:36.349Z,88.18
2019-04-27T23:00:31.672Z,87.94
2019-04-27T23:03:03.109Z,87.57
2019-04-27T23:05:32.705Z,86.60
2019-04-27T23:08:02.054Z,86.40
2019-04-27T23:10:31.586Z,85.49
2019-04-27T23:13:01.145Z,86.66
2019-04-27T23:15:36.573Z,86.96
2019-04-27T23:18:05.833Z,88.15
2019-04-27T23:20:35.098Z,88.99
2019-04-27T23:23:04.492Z,89.63
2019-04-27T23:25:33.822Z,90.06
2019-04-27T23:28:03.141Z,90.09
2019-04-27T23:30:43.007Z,90.32
2019-04-27T23:33:12.307Z,90.93
2019-04-27T23:35:41.555Z,90.72
2019-04-27T23:38:17.261Z,90.66
2019-04-27T23:40:41.964Z,90.27
2019-04-27T23:43:11.557Z,90.93
2019-04-27T23:45:41.901Z,90.94
2019-04-27T23:48:12.376Z,89.70
2019-04-27T23:50:43.674Z,90.94
2019-04-27T23:53:21.891Z,90.87
2019-04-27T23:55:51.352Z,91.69
2019-04-27T23:58:20.831Z,91.98
